createdAt,value
2022-09-28T00:01:32.892Z,100839.06
2022-09-28T00:04:07.730Z,100837.22
2022-09-28T00:06:35.494Z,100837.91
2022-09-28T00:09:04.795Z,100833.34
2022-09-28T00:11:34.768Z,100833.34
2022-09-28T00:14:04.075Z,100830.88
2022-09-28T00:16:39.228Z,100828.75
2022-09-28T00:19:08.083Z,100831.19
2022-09-28T00:21:37.825Z,100822.53
2022-09-28T00:24:13.554Z,100816.41
2022-09-28T00:26:41.374Z,100816.06
2022-09-28T00:29:18.152Z,100814.41
2022-09-28T00:31:48.257Z,100818.38
2022-09-28T00:34:19.513Z,100809.97
2022-09-28T00:36:48.326Z,100819.66
2022-09-28T00:39:17.209Z,100808.66
2022-09-28T00:41:46.303Z,100803.38
2022-09-28T00:44:26.265Z,100801.28
2022-09-28T00:47:03.342Z,100806.06
2022-09-28T00:50:01.711Z,100803.59
2022-09-28T00:52:41.864Z,100794.56
2022-09-28T00:55:14.479Z,100789.47
2022-09-28T00:57:46.627Z,100795.13
2022-09-28T01:00:15.032Z,100800.72
2022-09-28T01:02:44.311Z,100790.31
2022-09-28T01:05:13.696Z,100786.81
2022-09-28T01:07:43.279Z,100782.31
2022-09-28T01:10:11.500Z,100779.47
2022-09-28T01:12:39.048Z,100787.03
2022-09-28T01:15:08.356Z,100778.97
2022-09-28T01:17:50.108Z,100772.00
2022-09-28T01:20:56.288Z,100777.69
2022-09-28T01:23:30.966Z,100779.50
2022-09-28T01:26:36.469Z,100769.63
2022-09-28T01:29:32.298Z,100761.41
2022-09-28T01:32:12.262Z,100759.16
2022-09-28T01:34:55.181Z,100757.59
2022-09-28T01:37:28.537Z,100754.44
2022-09-28T01:39:59.401Z,100755.06
2022-09-28T01:42:32.209Z,100744.97
2022-09-28T01:45:07.775Z,100747.44
2022-09-28T01:47:41.553Z,100755.28
2022-09-28T01:50:18.734Z,100748.41
2022-09-28T01:52:53.785Z,100739.94
2022-09-28T01:55:26.754Z,100734.88
2022-09-28T01:58:06.711Z,100735.59
2022-09-28T02:00:36.684Z,100739.09
2022-09-28T02:03:12.853Z,100736.63
2022-09-28T02:05:51.643Z,100733.25
2022-09-28T02:08:43.572Z,100720.94
2022-09-28T02:11:16.921Z,100722.69
2022-09-28T02:14:12.949Z,100724.31
2022-09-28T02:16:43.874Z,100715.97
2022-09-28T02:19:23.447Z,100708.63
2022-09-28T02:22:03.663Z,100706.63
2022-09-28T02:24:58.373Z,100705.44
2022-09-28T02:27:44.258Z,100705.53
2022-09-28T02:30:30.360Z,100697.22
2022-09-28T02:33:39.272Z,100697.06
2022-09-28T02:36:19.759Z,100702.03
2022-09-28T02:38:57.129Z,100692.75
2022-09-28T02:41:38.003Z,100689.94
2022-09-28T02:44:58.560Z,100683.13
2022-09-28T02:47:51.162Z,100680.53
2022-09-28T02:50:19.592Z,100685.47
2022-09-28T02:52:56.222Z,100692.03
2022-09-28T02:55:33.168Z,100688.81
2022-09-28T02:58:04.166Z,100688.31
2022-09-28T03:00:38.601Z,100681.44
2022-09-28T03:03:06.217Z,100676.41
2022-09-28T03:05:53.452Z,100673.00
2022-09-28T03:08:29.989Z,100676.03
2022-09-28T03:11:08.169Z,100675.97
2022-09-28T03:13:37.412Z,100662.75
2022-09-28T03:16:12.162Z,100666.03
2022-09-28T03:18:41.483Z,100665.97
2022-09-28T03:21:11.150Z,100662.59
2022-09-28T03:23:39.870Z,100659.75
2022-09-28T03:26:14.486Z,100665.00
2022-09-28T03:28:42.711Z,100652.16
2022-09-28T03:31:15.852Z,100655.66
2022-09-28T03:33:43.489Z,100657.97
2022-09-28T03:36:11.171Z,100655.28
2022-09-28T03:38:39.336Z,100653.97
2022-09-28T03:41:10.610Z,100658.28
2022-09-28T03:43:42.148Z,100644.47
2022-09-28T03:46:10.785Z,100645.34
2022-09-28T03:48:43.964Z,100645.69
2022-09-28T03:51:13.462Z,100641.25
2022-09-28T03:53:41.521Z,100633.31
2022-09-28T03:56:16.615Z,100629.47
2022-09-28T03:58:44.490Z,100625.63
2022-09-28T04:01:17.603Z,100622.06
2022-09-28T04:03:47.952Z,100617.44
2022-09-28T04:06:16.300Z,100616.78
2022-09-28T04:08:44.086Z,100622.16
2022-09-28T04:11:12.118Z,100613.78
2022-09-28T04:13:40.391Z,100620.50
2022-09-28T04:16:12.600Z,100622.00
2022-09-28T04:18:44.841Z,100633.31
2022-09-28T04:21:22.675Z,100626.41
2022-09-28T04:23:59.904Z,100619.97
2022-09-28T04:26:28.798Z,100621.09
2022-09-28T04:29:16.145Z,100623.09
2022-09-28T04:31:53.554Z,100616.91
2022-09-28T04:34:26.001Z,100604.25
2022-09-28T04:36:54.164Z,100616.34
2022-09-28T04:39:22.202Z,100624.53
2022-09-28T04:41:54.078Z,100622.06
2022-09-28T04:44:22.664Z,100614.66
2022-09-28T04:46:56.582Z,100619.97
2022-09-28T04:49:39.844Z,100619.09
2022-09-28T04:52:17.211Z,100619.25
2022-09-28T04:54:48.411Z,100622.50
2022-09-28T04:57:19.935Z,100614.00
2022-09-28T04:59:47.846Z,100610.00
2022-09-28T05:02:15.973Z,100605.66
2022-09-28T05:04:53.825Z,100611.03
2022-09-28T05:07:38.597Z,100601.09
2022-09-28T05:10:08.120Z,100601.94
2022-09-28T05:12:38.058Z,100599.22
2022-09-28T05:15:06.392Z,100596.66
2022-09-28T05:17:34.287Z,100592.94
2022-09-28T05:20:10.217Z,100596.75
2022-09-28T05:22:37.966Z,100594.19
2022-09-28T05:25:08.581Z,100598.75
2022-09-28T05:27:47.640Z,100599.72
2022-09-28T05:30:35.506Z,100588.81
2022-09-28T05:33:24.660Z,100592.13
2022-09-28T05:36:04.691Z,100587.63
2022-09-28T05:38:33.292Z,100581.00
2022-09-28T05:41:06.304Z,100586.38
2022-09-28T05:43:34.850Z,100579.34
2022-09-28T05:46:07.209Z,100578.50
2022-09-28T05:48:38.262Z,100582.22
2022-09-28T05:51:09.129Z,100568.53
2022-09-28T05:53:37.072Z,100570.13
2022-09-28T05:56:05.815Z,100572.16
2022-09-28T05:58:35.901Z,100554.53
2022-09-28T06:01:04.229Z,100560.34
2022-09-28T06:03:32.610Z,100562.97
2022-09-28T06:06:03.700Z,100557.06
2022-09-28T06:08:33.306Z,100554.38
2022-09-28T06:11:20.589Z,100541.34
2022-09-28T06:13:48.261Z,100548.06
2022-09-28T06:16:19.467Z,100543.94
2022-09-28T06:18:47.003Z,100548.13
2022-09-28T06:21:17.028Z,100550.97
2022-09-28T06:23:49.438Z,100552.00
2022-09-28T06:26:18.961Z,100565.91
2022-09-28T06:28:52.996Z,100572.47
2022-09-28T06:31:24.046Z,100577.69
2022-09-28T06:33:52.442Z,100581.84
2022-09-28T06:36:22.971Z,100575.88
2022-09-28T06:38:50.839Z,100580.38
2022-09-28T06:41:19.015Z,100582.53
2022-09-28T06:43:48.487Z,100575.06
2022-09-28T06:46:34.493Z,100581.94
2022-09-28T06:49:19.800Z,100579.31
2022-09-28T06:52:07.517Z,100587.16
2022-09-28T06:55:04.365Z,100589.47
2022-09-28T06:57:42.595Z,100587.78
2022-09-28T07:00:11.523Z,100587.69
2022-09-28T07:02:39.373Z,100583.13
2022-09-28T07:05:19.674Z,100576.56
2022-09-28T07:07:59.504Z,100580.22
2022-09-28T07:10:58.023Z,100570.78
2022-09-28T07:13:50.201Z,100572.09
2022-09-28T07:16:25.692Z,100575.38
2022-09-28T07:18:54.947Z,100580.75
2022-09-28T07:21:29.588Z,100586.03
2022-09-28T07:24:00.832Z,100588.38
2022-09-28T07:27:00.513Z,100586.72
2022-09-28T07:29:38.519Z,100583.00
2022-09-28T07:32:24.003Z,100589.31
2022-09-28T07:35:16.883Z,100582.41
2022-09-28T07:37:50.238Z,100585.94
2022-09-28T07:40:37.211Z,100586.31
2022-09-28T07:43:06.535Z,100584.69
2022-09-28T07:45:38.812Z,100587.47
2022-09-28T07:48:07.789Z,100586.63
2022-09-28T07:50:34.983Z,100594.50
2022-09-28T07:53:22.600Z,100592.66
2022-09-28T07:56:10.126Z,100591.03
2022-09-28T07:58:56.226Z,100589.91
2022-09-28T08:01:42.720Z,100589.41
2022-09-28T08:04:14.168Z,100594.63
2022-09-28T08:06:45.174Z,100599.56
2022-09-28T08:09:13.893Z,100595.41
2022-09-28T08:11:59.998Z,100602.44
2022-09-28T08:14:37.872Z,100608.50
2022-09-28T08:17:33.718Z,100610.13
2022-09-28T08:20:25.188Z,100603.44
2022-09-28T08:22:53.561Z,100603.19
2022-09-28T08:25:21.590Z,100602.22
2022-09-28T08:27:50.189Z,100607.72
2022-09-28T08:30:18.276Z,100601.69
2022-09-28T08:33:00.569Z,100614.94
2022-09-28T08:35:42.843Z,100608.91
2022-09-28T08:38:20.333Z,100605.22
2022-09-28T08:41:49.413Z,100604.28
2022-09-28T08:44:48.880Z,100616.22
2022-09-28T08:48:12.260Z,100616.41
2022-09-28T08:51:16.223Z,100619.53
2022-09-28T08:53:48.471Z,100615.91
2022-09-28T08:56:48.038Z,100606.47
2022-09-28T08:59:23.308Z,100609.34
2022-09-28T09:02:03.971Z,100598.41
2022-09-28T09:04:34.592Z,100602.50
2022-09-28T09:07:52.123Z,100601.53
2022-09-28T09:10:34.242Z,100597.47
2022-09-28T09:13:11.537Z,100592.75
2022-09-28T09:15:57.759Z,100593.53
2022-09-28T09:18:50.099Z,100597.34
2022-09-28T09:21:50.185Z,100594.06
2022-09-28T09:24:53.507Z,100597.91
2022-09-28T09:27:21.681Z,100583.19
2022-09-28T09:29:52.637Z,100579.75
2022-09-28T09:32:53.852Z,100568.81
2022-09-28T09:35:33.879Z,100575.88
2022-09-28T09:38:22.906Z,100574.38
2022-09-28T09:41:15.865Z,100576.88
2022-09-28T09:44:06.454Z,100567.56
2022-09-28T09:47:15.396Z,100562.81
2022-09-28T09:50:05.553Z,100559.84
2022-09-28T09:52:50.297Z,100556.66
2022-09-28T09:55:42.439Z,100550.63
2022-09-28T09:58:36.661Z,100550.50
2022-09-28T10:01:31.421Z,100546.63
2022-09-28T10:04:34.470Z,100539.03
2022-09-28T10:07:35.241Z,100539.09
2022-09-28T10:10:04.237Z,100528.44
2022-09-28T10:12:45.635Z,100526.25
2022-09-28T10:15:17.195Z,100534.16
2022-09-28T10:18:09.866Z,100526.47
2022-09-28T10:20:57.116Z,100527.31
2022-09-28T10:23:58.004Z,100532.72
2022-09-28T10:26:36.521Z,100511.91
2022-09-28T10:29:13.589Z,100513.25
2022-09-28T10:31:41.168Z,100525.50
2022-09-28T10:34:25.359Z,100518.22
2022-09-28T10:37:05.922Z,100512.38
2022-09-28T10:39:55.047Z,100510.94
2022-09-28T10:42:37.303Z,100496.38
2022-09-28T10:45:32.748Z,100495.53
2022-09-28T10:48:14.435Z,100495.09
2022-09-28T10:51:18.103Z,100490.81
2022-09-28T10:54:07.302Z,100494.28
2022-09-28T10:56:46.817Z,100489.97
2022-09-28T10:59:32.487Z,100487.03
2022-09-28T11:02:36.743Z,100484.81
2022-09-28T11:05:22.163Z,100495.78
2022-09-28T11:07:52.603Z,100480.34
2022-09-28T11:10:27.967Z,100492.56
2022-09-28T11:13:01.216Z,100489.66
2022-09-28T11:15:33.486Z,100485.06
2022-09-28T11:18:32.688Z,100475.03
2022-09-28T11:21:13.884Z,100459.59
2022-09-28T11:24:19.096Z,100464.72
2022-09-28T11:26:53.166Z,100455.22
2022-09-28T11:29:34.201Z,100460.63
2022-09-28T11:32:45.136Z,100457.41
2022-09-28T11:35:37.281Z,100448.97
2022-09-28T11:38:10.952Z,100441.91
2022-09-28T11:41:28.611Z,100421.31
2022-09-28T11:44:14.254Z,100428.06
2022-09-28T11:47:21.505Z,100424.56
2022-09-28T11:50:00.893Z,100428.03
2022-09-28T11:52:35.481Z,100421.03
2022-09-28T11:55:13.839Z,100419.91
2022-09-28T11:57:45.510Z,100426.19
2022-09-28T12:00:20.173Z,100422.41
2022-09-28T12:02:57.242Z,100411.00
2022-09-28T12:05:32.686Z,100397.50
2022-09-28T12:08:17.834Z,100396.41
2022-09-28T12:11:29.011Z,100392.66
2022-09-28T12:14:22.888Z,100376.63
2022-09-28T12:17:29.851Z,100361.94
2022-09-28T12:20:32.068Z,100360.31
2022-09-28T12:23:15.051Z,100360.84
2022-09-28T12:25:59.846Z,100357.03
2022-09-28T12:28:47.982Z,100354.03
2022-09-28T12:31:25.230Z,100357.03
2022-09-28T12:33:53.246Z,100343.47
2022-09-28T12:36:30.736Z,100345.63
2022-09-28T12:39:19.147Z,100341.78
2022-09-28T12:42:30.257Z,100330.91
2022-09-28T12:45:59.432Z,100315.69
2022-09-28T12:50:07.227Z,100311.88
2022-09-28T12:53:03.130Z,100291.50
2022-09-28T12:55:58.359Z,100285.78
2022-09-28T13:01:57.581Z,100275.03
2022-09-28T13:05:07.542Z,100270.97
2022-09-28T13:08:02.278Z,100279.38
2022-09-28T13:11:07.833Z,100265.22
2022-09-28T13:13:53.796Z,100257.88
2022-09-28T13:16:46.621Z,100251.59
2022-09-28T13:20:09.621Z,100252.88
2022-09-28T13:22:50.852Z,100239.28
2022-09-28T13:25:47.023Z,100239.19
2022-09-28T13:28:47.507Z,100225.72
2022-09-28T13:31:45.024Z,100227.81
2022-09-28T13:34:21.033Z,100223.97
2022-09-28T13:37:25.465Z,100218.19
2022-09-28T13:40:00.311Z,100220.88
2022-09-28T13:43:03.518Z,100222.25
2022-09-28T13:45:48.226Z,100210.34
2022-09-28T13:48:22.533Z,100221.16
2022-09-28T13:51:25.044Z,100209.75
2022-09-28T13:54:29.417Z,100211.53
2022-09-28T13:57:27.146Z,100210.69
2022-09-28T14:00:25.800Z,100199.25
2022-09-28T14:03:16.043Z,100192.94
2022-09-28T14:06:04.830Z,100186.63
2022-09-28T14:08:39.750Z,100179.81
2022-09-28T14:11:28.369Z,100177.03
2022-09-28T14:14:06.426Z,100168.13
2022-09-28T14:16:37.453Z,100164.31
2022-09-28T14:22:43.243Z,100162.03
2022-09-28T14:25:32.322Z,100155.50
2022-09-28T14:28:54.969Z,100160.66
2022-09-28T14:31:29.675Z,100156.25
2022-09-28T14:34:04.002Z,100157.34
2022-09-28T14:37:08.159Z,100156.47
2022-09-28T14:39:57.347Z,100161.84
2022-09-28T14:42:26.199Z,100158.84
2022-09-28T14:45:06.219Z,100147.09
2022-09-28T14:47:37.890Z,100148.53
2022-09-28T14:50:25.623Z,100145.53
2022-09-28T14:53:05.268Z,100136.28
2022-09-28T14:55:41.232Z,100131.94
2022-09-28T14:58:37.181Z,100130.28
2022-09-28T15:01:14.934Z,100123.53
2022-09-28T15:03:44.380Z,100117.03
2022-09-28T15:06:20.019Z,100119.47
2022-09-28T15:08:51.875Z,100124.41
2022-09-28T15:11:25.667Z,100120.06
2022-09-28T15:14:06.859Z,100122.19
2022-09-28T15:16:34.521Z,100116.75
2022-09-28T15:19:11.263Z,100112.44
2022-09-28T15:21:42.611Z,100111.91
2022-09-28T15:24:27.027Z,100106.53
2022-09-28T15:26:55.305Z,100108.22
2022-09-28T15:29:28.503Z,100112.34
2022-09-28T15:31:56.872Z,100105.59
2022-09-28T15:34:53.185Z,100105.31
2022-09-28T15:37:40.286Z,100099.41
2022-09-28T15:40:15.674Z,100100.94
2022-09-28T15:42:45.629Z,100101.00
2022-09-28T15:45:31.123Z,100096.09
2022-09-28T15:48:18.416Z,100093.38
2022-09-28T15:51:11.204Z,100092.03
2022-09-28T15:53:58.709Z,100096.59
2022-09-28T15:56:29.952Z,100099.03
2022-09-28T15:59:16.997Z,100098.38
2022-09-28T16:01:46.584Z,100094.03
2022-09-28T16:04:43.104Z,100097.50
2022-09-28T16:07:11.059Z,100088.84
2022-09-28T16:10:06.517Z,100089.94
2022-09-28T16:12:36.945Z,100094.03
2022-09-28T16:15:29.607Z,100082.66
2022-09-28T16:18:03.353Z,100093.00
2022-09-28T16:20:38.281Z,100087.63
2022-09-28T16:23:34.417Z,100091.16
2022-09-28T16:26:03.411Z,100093.38
2022-09-28T16:28:35.048Z,100084.16
2022-09-28T16:31:08.171Z,100089.06
2022-09-28T16:33:57.994Z,100090.75
2022-09-28T16:36:39.799Z,100082.59
2022-09-28T16:39:07.187Z,100084.81
2022-09-28T16:41:34.948Z,100075.28
2022-09-28T16:44:05.541Z,100083.44
2022-09-28T16:46:38.503Z,100080.47
2022-09-28T16:49:07.081Z,100079.13
2022-09-28T16:51:34.600Z,100081.34
2022-09-28T16:54:45.694Z,100079.72
2022-09-28T16:57:15.543Z,100087.69
2022-09-28T16:59:43.077Z,100086.34
2022-09-28T17:05:08.325Z,100082.31
2022-09-28T17:07:36.755Z,100099.41
2022-09-28T17:10:41.216Z,100080.38
2022-09-28T17:13:23.905Z,100082.34
2022-09-28T17:15:52.205Z,100093.00
2022-09-28T17:18:23.015Z,100089.75
2022-09-28T17:20:54.519Z,100090.03
2022-09-28T17:23:22.396Z,100086.81
2022-09-28T17:25:50.294Z,100090.06
2022-09-28T17:28:21.908Z,100086.41
2022-09-28T17:30:49.792Z,100079.31
2022-09-28T17:33:17.650Z,100076.03
2022-09-28T17:35:46.062Z,100081.75
2022-09-28T17:38:16.226Z,100084.53
2022-09-28T17:40:46.550Z,100090.25
2022-09-28T17:43:14.734Z,100080.22
2022-09-28T17:45:45.448Z,100087.28
2022-09-28T17:48:18.230Z,100096.59
2022-09-28T17:50:47.994Z,100093.63
2022-09-28T17:53:15.739Z,100096.63
2022-09-28T17:55:43.981Z,100096.66
2022-09-28T17:58:26.019Z,100084.72
2022-09-28T18:00:53.771Z,100093.69
2022-09-28T18:03:23.930Z,100091.00
2022-09-28T18:06:03.874Z,100093.25
2022-09-28T18:08:34.916Z,100087.81
2022-09-28T18:11:08.708Z,100094.84
2022-09-28T18:13:36.770Z,100094.03
2022-09-28T18:16:17.565Z,100089.47
2022-09-28T18:18:50.280Z,100100.56
2022-09-28T18:21:18.040Z,100098.72
2022-09-28T18:23:45.891Z,100101.44
2022-09-28T18:26:19.642Z,100108.50
2022-09-28T18:28:47.817Z,100103.34
2022-09-28T18:31:16.374Z,100116.69
2022-09-28T18:33:53.650Z,100112.34
2022-09-28T18:36:36.753Z,100112.34
2022-09-28T18:39:05.438Z,100111.28
2022-09-28T18:41:38.471Z,100112.91
2022-09-28T18:44:07.348Z,100108.31
2022-09-28T18:46:39.399Z,100112.09
2022-09-28T18:49:13.239Z,100113.75
2022-09-28T18:51:44.585Z,100116.75
2022-09-28T18:54:20.642Z,100119.44
2022-09-28T18:57:07.893Z,100120.81
2022-09-28T18:59:36.561Z,100118.91
2022-09-28T19:02:06.324Z,100119.75
2022-09-28T19:04:42.427Z,100125.97
2022-09-28T19:07:10.481Z,100137.41
2022-09-28T19:09:41.179Z,100136.59
2022-09-28T19:12:18.910Z,100139.03
2022-09-28T19:14:47.746Z,100145.56
2022-09-28T19:18:10.216Z,100139.59
2022-09-28T19:20:45.144Z,100145.31
2022-09-28T19:23:13.542Z,100150.47
2022-09-28T19:25:41.625Z,100155.88
2022-09-28T19:28:11.615Z,100168.09
2022-09-28T19:30:40.161Z,100168.63
2022-09-28T19:33:20.321Z,100161.34
2022-09-28T19:36:07.828Z,100177.06
2022-09-28T19:38:38.366Z,100175.97
2022-09-28T19:41:52.002Z,100182.19
2022-09-28T19:44:33.033Z,100172.72
2022-09-28T19:47:13.221Z,100176.28
2022-09-28T19:49:43.253Z,100181.69
2022-09-28T19:52:18.097Z,100178.97
2022-09-28T19:55:00.404Z,100173.84
2022-09-28T19:57:30.862Z,100177.38
2022-09-28T20:00:03.273Z,100178.44
2022-09-28T20:02:35.251Z,100190.09
2022-09-28T20:05:03.879Z,100200.41
2022-09-28T20:07:33.692Z,100198.50
2022-09-28T20:10:03.204Z,100191.72
2022-09-28T20:12:32.811Z,100200.06
2022-09-28T20:15:10.342Z,100211.22
2022-09-28T20:18:05.462Z,100208.47
2022-09-28T20:20:43.467Z,100207.09
2022-09-28T20:23:12.428Z,100206.31
2022-09-28T20:25:51.048Z,100206.28
2022-09-28T20:28:19.908Z,100215.50
2022-09-28T20:30:53.229Z,100209.84
2022-09-28T20:33:28.883Z,100210.38
2022-09-28T20:35:59.269Z,100210.66
2022-09-28T20:38:28.988Z,100212.53
2022-09-28T20:41:03.412Z,100218.25
2022-09-28T20:43:32.289Z,100215.25
2022-09-28T20:46:02.723Z,100225.28
2022-09-28T20:48:31.563Z,100225.28
2022-09-28T20:51:18.038Z,100218.78
2022-09-28T20:53:54.073Z,100221.75
2022-09-28T20:56:24.909Z,100229.56
2022-09-28T20:58:53.624Z,100231.75
2022-09-28T21:01:24.051Z,100245.03
2022-09-28T21:04:00.025Z,100247.44
2022-09-28T21:06:30.091Z,100249.59
2022-09-28T21:08:59.597Z,100250.34
2022-09-28T21:11:29.263Z,100252.81
2022-09-28T21:14:08.095Z,100245.22
2022-09-28T21:16:36.325Z,100250.66
2022-09-28T21:19:04.585Z,100243.06
2022-09-28T21:21:34.322Z,100235.47
2022-09-28T21:24:02.724Z,100250.91
2022-09-28T21:26:31.668Z,100251.69
2022-09-28T21:29:12.111Z,100267.88
2022-09-28T21:31:47.573Z,100263.53
2022-09-28T21:34:20.408Z,100266.25
2022-09-28T21:36:54.767Z,100264.06
2022-09-28T21:39:22.438Z,100260.00
2022-09-28T21:41:49.997Z,100262.69
2022-09-28T21:44:17.931Z,100262.94
2022-09-28T21:46:45.715Z,100275.84
2022-09-28T21:49:14.768Z,100269.91
2022-09-28T21:51:42.495Z,100267.19
2022-09-28T21:54:10.293Z,100270.41
2022-09-28T21:56:40.478Z,100272.53
2022-09-28T21:59:08.349Z,100273.66
2022-09-28T22:01:44.880Z,100276.31
2022-09-28T22:04:12.989Z,100263.84
2022-09-28T22:06:45.145Z,100268.69
2022-09-28T22:09:13.866Z,100255.38
2022-09-28T22:11:43.570Z,100276.00
2022-09-28T22:14:13.101Z,100271.66
2022-09-28T22:16:41.532Z,100281.63
2022-09-28T22:19:10.170Z,100283.47
2022-09-28T22:21:38.309Z,100276.66
2022-09-28T22:24:10.698Z,100279.41
2022-09-28T22:26:42.968Z,100285.06
2022-09-28T22:29:11.760Z,100284.22
2022-09-28T22:31:41.883Z,100288.25
2022-09-28T22:34:10.562Z,100282.56
2022-09-28T22:36:38.288Z,100281.16
2022-09-28T22:39:06.502Z,100288.13
2022-09-28T22:41:34.573Z,100300.69
2022-09-28T22:44:02.633Z,100301.81
2022-09-28T22:46:32.862Z,100303.19
2022-09-28T22:49:01.413Z,100305.63
2022-09-28T22:51:30.779Z,100306.69
2022-09-28T22:53:58.910Z,100308.34
2022-09-28T22:56:33.561Z,100299.13
2022-09-28T22:59:05.979Z,100292.66
2022-09-28T23:01:35.064Z,100292.66
2022-09-28T23:04:02.677Z,100299.66
2022-09-28T23:06:31.289Z,100292.72
2022-09-28T23:09:00.013Z,100288.91
2022-09-28T23:11:28.859Z,100284.28
2022-09-28T23:13:58.855Z,100266.81
2022-09-28T23:16:27.559Z,100258.63
2022-09-28T23:18:57.028Z,100259.47
2022-09-28T23:21:27.250Z,100261.66
2022-09-28T23:24:01.336Z,100263.84
2022-09-28T23:26:32.219Z,100261.59
2022-09-28T23:29:00.751Z,100252.97
2022-09-28T23:31:31.285Z,100250.00
2022-09-28T23:34:10.668Z,100243.00
2022-09-28T23:36:38.642Z,100237.06
2022-09-28T23:39:06.756Z,100239.44
2022-09-28T23:41:36.365Z,100235.38
2022-09-28T23:44:04.494Z,100237.44
2022-09-28T23:46:33.312Z,100239.28
2022-09-28T23:49:01.117Z,100243.34
2022-09-28T23:51:29.265Z,100235.16
2022-09-28T23:53:57.786Z,100238.09
2022-09-28T23:56:25.653Z,100228.94
2022-09-28T23:58:54.778Z,100233.03
